Etusivu
METAR-TAF:

METAR-TAF

Lentoasemat :

F 7 Såtenäs

Såtenäs, Ruotsi

Leveyspiiri: 58-26N, Pituuspiiri: 012-42E, korkeus merenpinnasta: 54 m

Tämänhetkinen sää

Tämä raportti tehtiin 22 minuuttia sitten, kello 11.20 UTC
Tuuli 9 kn lännestä/lounaasta
Lämpötila 25°C
Kosteus 57%
Ilmanpaine 1011 hPa
Näkyvyys 10 km tai enemmän

METAR: ESIB 231120Z AUTO 25009KT 9999 NCD 25/16 Q1011

Aika: 13:42 (11:42 UTC)


TAF: puuttuu

Säähavainnot ja -ennusteet yli 4000 lentoasemalta (METAR- ja TAF-raportit).

Käytössä olevat sääasemat on merkitty karttaan keltaisilla ja punaisilla pisteillä.

Aseta hiiri pisteen päälle nähdäksesi sääaseman nimen.

Klikkaa sitten nähdäksesi säähavainnot ja -ennusteet.

Kartan vaihtaminen: klikkaa mustalla rastilla varustettuja vihreitä pisteitä, niin voit zoomata sisään; viivalla varustettua vihreää pistettä, niin voit zoomata ulos tai vihreitä nuolia, niin pääset viereisille kartoille.


METAR-TAF: